Terminal Aerodrome Forecast
Issued by NWS Wilmington, OH

Home | Current Version | Previous Version | Text Only | Print | Product List | Glossary On
Versions: 1 2 3 4 5 6 7 8 9 10 11 12 13 14 15 16 17 18 19 20 21 22 23
000
FTUS41 KILN 291100 RRA
TAFILN
TAF
KILN 291140Z 2912/3012 02007KT P6SM OVC025
      TEMPO 2912/2913 5SM BR
     FM291500 02008KT P6SM SCT025
      TEMPO 2915/2918 BKN025
     FM300100 02006KT P6SM BKN200=

USA.gov is the U.S. government's official web portal to all federal, state and local government web resources and services.